Time;durP1;ratioP1;P1;durP2;ratioP2;P2;SDS_P1;SDS_P2;PMS_P1;PMS_P2;Temp;Humidity;BMP_temperature;BMP_pressure;BME280_temperature;BME280_humidity;BME280_pressure;Samples;Min_cycle;Max_cycle;Signal;HPM_P1;HPM_P2
2021/06/03 00:00:15;;;;;;;4.30;2.58;;;17.60;86.70;;;;;;5026783;28;20042;-88
2021/06/03 00:02:43;;;;;;;5.47;3.13;;;17.60;87.10;;;;;;5003332;28;20184;-88
2021/06/03 00:05:09;;;;;;;3.90;3.00;;;17.50;87.00;;;;;;5011986;28;20076;-87
2021/06/03 00:07:35;;;;;;;4.65;3.05;;;17.50;86.80;;;;;;5016852;28;20321;-89
2021/06/03 00:10:01;;;;;;;5.43;3.22;;;17.50;87.10;;;;;;5021178;28;20038;-88
2021/06/03 00:12:26;;;;;;;3.88;2.70;;;17.40;87.30;;;;;;5009825;28;20042;-89
2021/06/03 00:14:52;;;;;;;4.80;3.20;;;17.40;87.40;;;;;;5001289;28;20311;-88
2021/06/03 00:17:17;;;;;;;3.97;3.08;;;17.40;87.50;;;;;;5018540;28;20271;-86
2021/06/03 00:19:43;;;;;;;3.53;2.70;;;17.40;87.80;;;;;;5006439;28;20034;-88
2021/06/03 00:22:08;;;;;;;4.32;3.05;;;17.30;87.70;;;;;;5012056;28;20096;-88
2021/06/03 00:24:34;;;;;;;3.13;2.58;;;17.30;87.80;;;;;;5004168;28;20049;-89
2021/06/03 00:27:00;;;;;;;6.95;3.35;;;17.30;88.10;;;;;;5016537;28;20031;-87
2021/06/03 00:29:26;;;;;;;6.10;2.90;;;17.20;88.50;;;;;;5014420;28;20126;-86
2021/06/03 00:31:51;;;;;;;3.97;2.90;;;17.20;88.40;;;;;;5021478;28;20064;-86
2021/06/03 00:34:17;;;;;;;5.43;3.10;;;17.20;88.30;;;;;;5035812;28;20041;-85
2021/06/03 00:36:42;;;;;;;4.10;3.15;;;17.10;88.40;;;;;;5015488;28;20334;-86
2021/06/03 00:39:08;;;;;;;3.20;2.67;;;17.10;88.40;;;;;;5018978;28;20129;-86
2021/06/03 00:41:33;;;;;;;6.70;3.05;;;17.10;88.50;;;;;;5006445;28;20033;-88
2021/06/03 00:44:00;;;;;;;5.35;2.83;;;17.00;88.50;;;;;;5003669;28;20069;-89
2021/06/03 00:46:26;;;;;;;4.38;2.75;;;17.00;88.60;;;;;;5015354;28;20034;-89
2021/06/03 00:48:53;;;;;;;5.25;3.47;;;17.00;88.80;;;;;;5004984;28;20136;-86
2021/06/03 00:51:19;;;;;;;7.57;3.53;;;17.00;88.80;;;;;;5013067;28;20049;-88
2021/06/03 00:53:45;;;;;;;3.97;2.80;;;16.90;88.90;;;;;;5008393;28;20121;-87
2021/06/03 00:56:11;;;;;;;3.80;3.05;;;16.90;89.00;;;;;;5004459;28;20077;-87
2021/06/03 00:58:36;;;;;;;7.25;3.25;;;16.90;88.90;;;;;;5010285;28;20152;-87
2021/06/03 01:01:03;;;;;;;11.32;3.53;;;16.80;89.30;;;;;;5010554;28;20038;-88
2021/06/03 01:03:30;;;;;;;3.85;3.20;;;16.80;89.40;;;;;;5017001;28;20049;-88
2021/06/03 01:06:04;;;;;;;3.70;2.97;;;16.80;89.80;;;;;;5028371;28;20038;-88
2021/06/03 01:08:55;;;;;;;4.47;3.60;;;16.80;89.40;;;;;;5033557;28;20053;-86
2021/06/03 01:11:33;;;;;;;8.77;3.60;;;16.70;89.50;;;;;;5010950;28;20038;-87
2021/06/03 01:14:21;;;;;;;3.55;3.20;;;16.70;89.70;;;;;;5012062;28;20042;-87
2021/06/03 01:16:48;;;;;;;4.32;3.45;;;16.70;89.90;;;;;;5023370;28;20038;-89
2021/06/03 01:19:27;;;;;;;6.97;3.03;;;16.70;89.70;;;;;;5023022;28;20050;-87
2021/06/03 01:22:08;;;;;;;7.30;3.90;;;16.60;90.00;;;;;;5011138;28;20433;-88
2021/06/03 01:24:46;;;;;;;3.95;3.53;;;16.60;90.00;;;;;;5034608;28;20038;-88
2021/06/03 01:27:24;;;;;;;6.03;4.00;;;16.60;89.90;;;;;;5026483;28;21508;-88
2021/06/03 01:30:03;;;;;;;5.55;2.78;;;16.60;90.00;;;;;;5007884;28;20041;-88
2021/06/03 01:32:32;;;;;;;5.38;3.92;;;16.60;89.80;;;;;;5018893;28;20042;-88
2021/06/03 01:34:58;;;;;;;4.55;3.53;;;16.50;89.60;;;;;;5012435;28;20034;-88
2021/06/03 01:37:24;;;;;;;3.65;3.00;;;16.50;89.50;;;;;;5007101;28;20038;-89
2021/06/03 01:39:51;;;;;;;4.90;3.58;;;16.60;89.50;;;;;;5008631;28;20049;-88
2021/06/03 01:42:18;;;;;;;3.72;2.95;;;16.50;89.80;;;;;;5012729;28;20125;-88
2021/06/03 01:44:44;;;;;;;3.33;2.88;;;16.50;89.90;;;;;;5006214;28;20038;-87
2021/06/03 01:47:10;;;;;;;3.63;2.90;;;16.50;89.80;;;;;;5000949;28;20141;-88
2021/06/03 01:49:37;;;;;;;6.35;3.53;;;16.50;89.90;;;;;;5006119;28;20053;-88
2021/06/03 01:52:04;;;;;;;4.57;3.80;;;16.50;89.70;;;;;;5007535;28;20099;-88
2021/06/03 01:54:31;;;;;;;7.60;3.40;;;16.50;89.90;;;;;;5006537;28;20038;-87
2021/06/03 01:56:57;;;;;;;4.10;2.90;;;16.50;89.50;;;;;;5015967;28;20095;-88
2021/06/03 01:59:24;;;;;;;7.70;3.00;;;16.50;89.70;;;;;;5010177;28;20038;-88
2021/06/03 02:01:49;;;;;;;4.72;3.15;;;16.50;89.60;;;;;;5018331;28;20066;-89
2021/06/03 02:04:15;;;;;;;3.85;3.13;;;16.40;89.40;;;;;;5028288;28;20046;-86
2021/06/03 02:06:43;;;;;;;4.05;3.30;;;16.40;90.00;;;;;;5013655;28;20570;-88
2021/06/03 02:09:09;;;;;;;3.70;2.97;;;16.40;89.70;;;;;;5017232;28;20117;-88
2021/06/03 02:11:39;;;;;;;4.43;3.22;;;16.40;89.60;;;;;;5007272;28;20148;-88
2021/06/03 02:14:09;;;;;;;5.45;3.88;;;16.40;89.60;;;;;;5005545;28;20117;-87
2021/06/03 02:16:55;;;;;;;4.30;2.72;;;16.40;89.80;;;;;;5012696;28;20047;-88
2021/06/03 02:19:39;;;;;;;5.65;3.58;;;16.40;89.70;;;;;;5009304;28;20043;-88
2021/06/03 02:22:06;;;;;;;4.90;2.92;;;16.40;90.00;;;;;;5016933;28;20042;-87
2021/06/03 02:24:32;;;;;;;4.03;2.88;;;16.40;90.00;;;;;;5015263;28;20034;-88
2021/06/03 02:26:58;;;;;;;4.93;3.47;;;16.30;89.90;;;;;;5000404;28;20074;-87
2021/06/03 02:29:24;;;;;;;4.10;2.90;;;16.30;90.30;;;;;;5007883;28;20038;-88
2021/06/03 02:31:50;;;;;;;5.15;3.50;;;16.30;90.10;;;;;;5003122;28;20042;-87
2021/06/03 02:34:17;;;;;;;6.80;4.10;;;16.30;90.10;;;;;;5016880;28;20056;-89
2021/06/03 02:36:42;;;;;;;5.85;3.20;;;16.30;90.20;;;;;;5032671;28;20033;-89
2021/06/03 02:39:08;;;;;;;4.35;3.40;;;16.30;90.20;;;;;;5027277;28;20133;-89
2021/06/03 02:41:34;;;;;;;4.40;3.22;;;16.30;90.20;;;;;;5010501;28;20412;-89
2021/06/03 02:44:00;;;;;;;8.65;3.08;;;16.20;90.10;;;;;;4999572;28;20046;-88
2021/06/03 02:46:26;;;;;;;3.97;3.38;;;16.20;90.10;;;;;;5013593;28;20069;-88
2021/06/03 02:48:52;;;;;;;4.10;2.97;;;16.30;90.10;;;;;;5009054;28;20030;-89
2021/06/03 02:51:18;;;;;;;6.28;4.00;;;16.20;90.00;;;;;;5014237;28;20506;-88
2021/06/03 02:53:44;;;;;;;3.72;3.20;;;16.20;90.10;;;;;;5010984;28;20042;-88
2021/06/03 02:56:10;;;;;;;5.68;3.83;;;16.20;90.10;;;;;;5008276;28;20053;-88
2021/06/03 02:58:35;;;;;;;6.75;3.00;;;16.20;90.10;;;;;;5006171;28;20309;-87
2021/06/03 03:01:02;;;;;;;5.00;3.92;;;16.20;90.00;;;;;;5009745;28;20176;-89
2021/06/03 03:03:27;;;;;;;4.13;3.38;;;16.20;90.00;;;;;;5014049;28;20053;-88
2021/06/03 03:05:53;;;;;;;7.10;2.70;;;16.20;90.10;;;;;;5002723;28;20042;-87
2021/06/03 03:08:19;;;;;;;8.18;3.75;;;16.20;90.10;;;;;;5015578;28;20038;-89
2021/06/03 03:10:49;;;;;;;4.85;3.40;;;16.20;90.10;;;;;;5010145;28;20161;-88
2021/06/03 03:13:15;;;;;;;7.88;3.30;;;16.20;90.10;;;;;;5011594;28;20030;-87
2021/06/03 03:15:41;;;;;;;6.55;3.58;;;16.10;90.10;;;;;;5012656;28;20654;-88
2021/06/03 03:18:07;;;;;;;6.40;3.67;;;16.10;90.20;;;;;;5023589;28;20070;-88
2021/06/03 03:20:33;;;;;;;6.53;2.80;;;16.10;90.10;;;;;;5027016;28;20038;-87
2021/06/03 03:22:59;;;;;;;7.05;3.60;;;16.10;90.10;;;;;;5009031;28;20074;-88
2021/06/03 03:25:28;;;;;;;5.10;3.83;;;16.10;90.20;;;;;;5007715;28;20070;-87
2021/06/03 03:27:54;;;;;;;7.43;3.42;;;16.10;90.30;;;;;;5006553;28;20038;-87
2021/06/03 03:30:22;;;;;;;4.63;3.30;;;16.10;90.30;;;;;;5028150;28;20133;-87
2021/06/03 03:32:49;;;;;;;7.65;3.30;;;16.10;90.20;;;;;;5019888;28;20029;-88
2021/06/03 03:35:15;;;;;;;7.18;3.47;;;16.00;90.30;;;;;;5012120;28;20056;-88
2021/06/03 03:37:43;;;;;;;5.75;3.47;;;16.10;90.30;;;;;;5014250;28;20050;-88
2021/06/03 03:40:16;;;;;;;3.85;2.90;;;16.10;90.40;;;;;;5011536;28;20096;-87
2021/06/03 03:42:41;;;;;;;;;;;16.00;90.30;;;;;;5013477;28;20120;-88
2021/06/03 03:45:10;;;;;;;7.35;3.42;;;16.00;90.30;;;;;;5002183;28;19945;-87
2021/06/03 03:47:35;;;;;;;5.13;3.63;;;16.00;90.20;;;;;;5025179;28;20514;-88
2021/06/03 03:50:01;;;;;;;4.85;3.65;;;16.00;90.20;;;;;;5023901;28;20050;-88
2021/06/03 03:52:26;;;;;;;5.40;3.05;;;16.00;90.30;;;;;;5005064;28;20042;-87
2021/06/03 03:54:52;;;;;;;5.00;4.13;;;16.00;90.40;;;;;;5014828;28;20041;-88
2021/06/03 03:57:18;;;;;;;4.25;3.50;;;16.00;90.40;;;;;;5010327;28;20390;-87
2021/06/03 03:59:44;;;;;;;5.55;3.88;;;16.00;90.40;;;;;;5011524;28;20302;-87
2021/06/03 04:02:13;;;;;;;4.57;2.85;;;16.00;90.50;;;;;;5031860;28;20026;-86
2021/06/03 04:04:40;;;;;;;6.05;3.70;;;16.00;90.40;;;;;;5020450;28;20115;-87
2021/06/03 04:07:14;;;;;;;7.13;3.35;;;16.10;90.40;;;;;;5019679;28;21655;-89
2021/06/03 04:09:41;;;;;;;4.93;3.55;;;16.10;90.40;;;;;;5016019;28;20369;-86
2021/06/03 04:12:07;;;;;;;4.90;3.22;;;16.10;90.40;;;;;;5031179;28;20113;-85
2021/06/03 04:14:33;;;;;;;5.10;4.05;;;16.10;90.40;;;;;;5032538;28;20397;-86
2021/06/03 04:16:58;;;;;;;5.18;3.90;;;16.10;90.30;;;;;;5024589;28;20042;-88
2021/06/03 04:19:24;;;;;;;7.30;2.78;;;16.20;90.40;;;;;;5024012;28;20046;-87
2021/06/03 04:21:50;;;;;;;4.18;2.75;;;16.20;90.30;;;;;;5016746;28;20042;-87
2021/06/03 04:24:16;;;;;;;6.53;3.08;;;16.20;90.30;;;;;;5004760;28;20061;-87
2021/06/03 04:26:42;;;;;;;6.07;3.60;;;16.30;90.30;;;;;;5010101;28;20067;-87
2021/06/03 04:29:07;;;;;;;4.25;3.53;;;16.30;90.20;;;;;;5009005;28;20034;-87
2021/06/03 04:31:34;;;;;;;8.13;3.35;;;16.30;90.20;;;;;;5009012;28;20049;-89
2021/06/03 04:33:59;;;;;;;5.03;4.07;;;16.30;90.20;;;;;;5010755;28;20046;-88
2021/06/03 04:36:25;;;;;;;5.70;4.43;;;16.30;90.10;;;;;;5021939;28;20026;-88
2021/06/03 04:38:51;;;;;;;5.78;3.90;;;16.30;90.10;;;;;;5019091;28;20069;-87
2021/06/03 04:41:16;;;;;;;3.45;3.05;;;16.40;89.60;;;;;;5011012;28;20057;-87
2021/06/03 04:43:43;;;;;;;4.43;3.38;;;16.40;89.90;;;;;;5024266;28;20073;-87
2021/06/03 04:46:10;;;;;;;6.53;3.60;;;16.50;90.00;;;;;;5017834;28;20305;-85
2021/06/03 04:48:35;;;;;;;6.20;3.63;;;16.50;88.80;;;;;;5010010;28;20183;-87
2021/06/03 04:51:01;;;;;;;7.13;3.38;;;16.50;89.30;;;;;;5021968;28;20452;-88
2021/06/03 04:53:27;;;;;;;12.57;3.95;;;16.50;89.30;;;;;;5012058;28;20042;-87
2021/06/03 04:55:52;;;;;;;5.78;3.67;;;16.50;89.20;;;;;;5002201;28;20030;-87
2021/06/03 04:58:18;;;;;;;6.95;3.58;;;16.50;89.20;;;;;;5011669;28;20097;-87
2021/06/03 05:00:44;;;;;;;5.40;3.72;;;16.50;89.30;;;;;;5004419;28;20081;-88
2021/06/03 05:03:10;;;;;;;3.83;2.70;;;16.50;89.30;;;;;;5003561;28;20100;-88
2021/06/03 05:05:37;;;;;;;5.93;3.60;;;16.50;89.20;;;;;;4997221;28;20105;-87
2021/06/03 05:08:03;;;;;;;6.90;3.78;;;16.50;89.20;;;;;;5010476;28;20043;-88
2021/06/03 05:10:29;;;;;;;6.20;3.58;;;16.60;89.30;;;;;;5015127;28;20081;-87
2021/06/03 05:12:56;;;;;;;5.07;3.10;;;16.60;89.50;;;;;;5013338;28;20078;-87
2021/06/03 05:15:22;;;;;;;5.47;4.03;;;16.60;89.80;;;;;;5012558;28;20041;-85
2021/06/03 05:17:51;;;;;;;5.50;3.90;;;16.60;89.80;;;;;;5006574;28;20099;-87
2021/06/03 05:20:18;;;;;;;7.15;4.05;;;16.70;90.00;;;;;;5013228;28;20042;-86
2021/06/03 05:22:45;;;;;;;6.50;4.13;;;16.70;89.10;;;;;;5001114;28;20130;-86
2021/06/03 05:25:13;;;;;;;4.38;3.42;;;16.70;89.40;;;;;;5011161;28;20509;-87
2021/06/03 05:27:39;;;;;;;4.38;3.45;;;16.80;89.90;;;;;;5001851;28;20368;-88
2021/06/03 05:30:09;;;;;;;6.55;3.70;;;16.80;88.60;;;;;;5004924;28;20083;-88
2021/06/03 05:32:35;;;;;;;4.85;3.70;;;16.90;88.50;;;;;;5011118;28;20136;-88
2021/06/03 05:35:01;;;;;;;4.38;3.47;;;17.00;89.30;;;;;;5011147;28;20077;-87
2021/06/03 05:37:26;;;;;;;4.53;3.42;;;17.00;88.60;;;;;;5002473;28;20325;-88
2021/06/03 05:39:52;;;;;;;4.70;3.30;;;17.10;87.70;;;;;;5016459;28;20038;-87
2021/06/03 05:42:21;;;;;;;6.07;3.33;;;17.20;86.20;;;;;;5003521;28;20041;-87
2021/06/03 05:44:47;;;;;;;7.43;3.13;;;17.30;87.00;;;;;;5017378;28;20353;-88
2021/06/03 05:47:14;;;;;;;5.70;3.80;;;17.40;86.20;;;;;;5035577;28;20058;-89
2021/06/03 05:49:39;;;;;;;5.63;3.55;;;17.50;86.10;;;;;;4994043;28;20046;-87
2021/06/03 05:52:06;;;;;;;6.63;3.90;;;17.70;85.50;;;;;;5001251;28;20125;-87
2021/06/03 05:54:33;;;;;;;4.75;3.63;;;17.70;85.40;;;;;;5014396;28;20035;-88
2021/06/03 05:56:59;;;;;;;3.67;2.78;;;17.80;84.90;;;;;;4999420;28;20049;-88
2021/06/03 05:59:25;;;;;;;7.82;3.67;;;17.90;84.90;;;;;;5003638;28;20124;-88
2021/06/03 06:01:53;;;;;;;6.97;3.22;;;18.00;84.80;;;;;;4999963;28;20034;-88
2021/06/03 06:06:47;;;;;;;4.50;3.20;;;18.20;85.10;;;;;;5017355;28;20044;-89
2021/06/03 06:09:14;;;;;;;3.58;2.70;;;18.30;85.20;;;;;;5008148;28;20120;-88
2021/06/03 06:11:40;;;;;;;3.83;2.88;;;18.40;86.00;;;;;;5013972;28;20048;-88
2021/06/03 06:14:07;;;;;;;7.38;3.00;;;18.40;84.20;;;;;;5004654;28;20324;-87
2021/06/03 06:16:33;;;;;;;7.85;3.17;;;18.50;84.30;;;;;;5006321;28;20058;-88
2021/06/03 06:18:59;;;;;;;7.63;3.25;;;18.60;84.80;;;;;;5018758;28;20113;-89
2021/06/03 06:21:26;;;;;;;8.55;3.38;;;18.70;84.70;;;;;;5029419;28;20030;-87
2021/06/03 06:23:52;;;;;;;4.28;3.35;;;18.70;84.60;;;;;;5010726;28;20147;-87
2021/06/03 06:26:18;;;;;;;5.63;2.80;;;18.80;84.70;;;;;;5010954;28;20034;-87
2021/06/03 06:28:44;;;;;;;5.88;2.80;;;18.90;83.40;;;;;;5010948;28;20042;-88
2021/06/03 06:31:10;;;;;;;6.57;2.95;;;19.10;83.40;;;;;;5019493;28;20052;-88
2021/06/03 06:33:37;;;;;;;3.60;2.47;;;19.20;83.40;;;;;;5017087;28;20642;-87
2021/06/03 06:36:04;;;;;;;3.25;2.63;;;19.40;81.40;;;;;;5017230;28;20113;-86
2021/06/03 06:38:30;;;;;;;5.25;2.90;;;19.50;80.80;;;;;;5017857;28;20095;-85
2021/06/03 06:40:56;;;;;;;5.20;2.78;;;19.60;80.50;;;;;;5019586;28;20049;-87
2021/06/03 06:43:21;;;;;;;3.75;2.83;;;19.70;80.90;;;;;;5010196;28;20099;-88
2021/06/03 06:45:48;;;;;;;3.58;2.65;;;19.80;81.30;;;;;;5018742;28;20034;-88
2021/06/03 06:48:18;;;;;;;5.95;3.50;;;20.00;79.70;;;;;;5016387;28;20039;-89
2021/06/03 06:50:46;;;;;;;3.20;2.72;;;20.20;79.90;;;;;;5017171;28;20045;-87
2021/06/03 06:53:12;;;;;;;2.05;1.85;;;20.30;79.20;;;;;;5017707;28;20039;-87
2021/06/03 06:55:38;;;;;;;3.05;2.45;;;20.50;78.50;;;;;;5004429;28;20126;-88
2021/06/03 06:58:05;;;;;;;4.15;2.53;;;20.60;77.10;;;;;;5018161;28;20094;-88
2021/06/03 07:00:35;;;;;;;4.32;2.67;;;20.80;77.30;;;;;;5018911;28;20436;-87
2021/06/03 07:03:00;;;;;;;4.10;2.50;;;20.90;76.00;;;;;;5004183;28;20038;-86
2021/06/03 07:05:27;;;;;;;5.30;2.47;;;21.10;75.90;;;;;;5008991;28;20073;-87
2021/06/03 07:07:53;;;;;;;7.68;2.78;;;21.20;76.70;;;;;;5009342;28;20038;-87
2021/06/03 07:10:19;;;;;;;2.83;2.08;;;21.40;74.70;;;;;;5017967;28;20038;-87
2021/06/03 07:12:45;;;;;;;10.10;2.10;;;21.50;74.80;;;;;;5024099;28;20046;-87
2021/06/03 07:15:13;;;;;;;7.45;2.20;;;21.70;74.40;;;;;;5024472;28;20165;-89
2021/06/03 07:17:39;;;;;;;3.15;2.10;;;21.80;74.30;;;;;;5016556;28;20124;-88
2021/06/03 07:20:10;;;;;;;2.67;1.77;;;21.90;73.70;;;;;;5017807;28;20038;-88
2021/06/03 07:22:37;;;;;;;3.55;1.83;;;22.00;72.00;;;;;;5007100;28;20038;-88
2021/06/03 07:25:06;;;;;;;6.00;2.33;;;22.10;72.10;;;;;;5010646;28;20034;-87
2021/06/03 07:27:31;;;;;;;4.32;2.38;;;22.20;71.50;;;;;;5013998;28;20096;-88
2021/06/03 07:29:59;;;;;;;4.40;2.10;;;22.30;71.80;;;;;;5004818;28;20054;-86
2021/06/03 07:32:26;;;;;;;5.93;2.22;;;22.40;71.40;;;;;;5001002;28;20041;-86
2021/06/03 07:34:52;;;;;;;3.25;1.58;;;22.50;70.10;;;;;;5003779;28;20035;-86
2021/06/03 07:37:17;;;;;;;2.58;1.50;;;22.70;70.80;;;;;;5001828;28;20038;-88
2021/06/03 07:39:43;;;;;;;6.85;1.75;;;22.80;69.70;;;;;;5001938;28;20042;-88
2021/06/03 07:42:11;;;;;;;3.28;2.15;;;23.00;68.00;;;;;;5009182;28;20049;-88
2021/06/03 07:44:37;;;;;;;5.15;1.80;;;23.10;69.10;;;;;;5003262;28;20030;-91
2021/06/03 07:47:03;;;;;;;2.88;1.70;;;23.30;66.70;;;;;;5015242;28;20038;-90
2021/06/03 07:49:29;;;;;;;3.00;1.50;;;23.50;65.60;;;;;;5022675;28;20477;-86
2021/06/03 07:51:54;;;;;;;2.30;1.38;;;23.70;67.50;;;;;;5001589;28;20046;-86
2021/06/03 07:54:20;;;;;;;3.10;1.70;;;23.80;67.20;;;;;;5020792;28;20033;-84
2021/06/03 07:56:45;;;;;;;2.47;2.00;;;23.90;65.30;;;;;;5031216;28;20046;-87
2021/06/03 07:59:11;;;;;;;2.75;1.33;;;24.10;65.80;;;;;;5011650;28;20057;-87
2021/06/03 08:01:37;;;;;;;2.00;1.48;;;24.20;67.00;;;;;;5009595;28;20030;-88
2021/06/03 08:04:02;;;;;;;3.83;1.48;;;24.30;66.00;;;;;;5015912;28;20069;-87
2021/06/03 08:06:28;;;;;;;2.80;1.40;;;24.50;64.90;;;;;;5014457;28;20034;-87
2021/06/03 08:08:53;;;;;;;4.40;1.23;;;24.70;66.20;;;;;;4996649;28;20050;-87
2021/06/03 08:11:19;;;;;;;2.15;1.52;;;24.80;64.50;;;;;;5008337;28;20041;-87
2021/06/03 08:13:44;;;;;;;2.10;1.30;;;25.00;63.60;;;;;;5014121;28;20291;-87
2021/06/03 08:16:11;;;;;;;3.58;1.10;;;25.10;64.00;;;;;;5005355;28;20041;-87
2021/06/03 08:18:36;;;;;;;2.25;1.20;;;25.20;63.30;;;;;;5016283;28;20048;-87
2021/06/03 08:21:04;;;;;;;9.15;1.38;;;25.40;62.10;;;;;;5012182;28;20030;-86
2021/06/03 08:23:31;;;;;;;4.35;1.38;;;25.50;61.10;;;;;;5004815;28;20049;-87
2021/06/03 08:25:57;;;;;;;4.03;1.55;;;25.70;61.80;;;;;;5008965;28;20038;-87
2021/06/03 08:28:24;;;;;;;1.60;1.05;;;25.70;62.00;;;;;;5010236;28;20103;-87
2021/06/03 08:30:51;;;;;;;2.92;1.77;;;25.80;59.70;;;;;;5009018;28;20073;-87
2021/06/03 08:33:17;;;;;;;1.70;1.40;;;25.90;61.60;;;;;;5014311;28;20465;-87
2021/06/03 08:35:42;;;;;;;3.13;1.65;;;26.00;59.20;;;;;;5004656;28;20053;-87
2021/06/03 08:38:10;;;;;;;8.48;1.55;;;26.20;63.80;;;;;;5007236;28;20299;-85
2021/06/03 08:40:43;;;;;;;1.67;1.40;;;26.30;60.90;;;;;;4995535;28;20045;-86
2021/06/03 08:43:10;;;;;;;2.25;1.13;;;26.40;61.20;;;;;;5003407;28;20038;-86
2021/06/03 08:45:39;;;;;;;3.50;1.35;;;26.50;58.70;;;;;;5014793;28;20389;-86
2021/06/03 08:48:05;;;;;;;5.30;2.05;;;26.60;61.20;;;;;;5014553;28;20073;-86
2021/06/03 08:50:35;;;;;;;3.47;1.65;;;26.70;60.70;;;;;;5014978;28;20042;-86
2021/06/03 08:53:01;;;;;;;2.90;1.55;;;26.80;59.50;;;;;;5015377;28;20042;-86
2021/06/03 08:58:14;;;;;;;5.18;1.65;;;26.90;57.90;;;;;;5002310;28;20021;-86
2021/06/03 09:00:42;;;;;;;5.03;1.50;;;27.00;59.70;;;;;;5005676;28;20053;-86
2021/06/03 09:03:07;;;;;;;2.17;1.52;;;27.10;60.30;;;;;;4996425;28;20300;-86
2021/06/03 09:05:33;;;;;;;2.10;1.40;;;27.20;59.80;;;;;;5010561;28;20417;-86
2021/06/03 09:08:15;;;;;;;1.95;1.45;;;27.20;58.80;;;;;;4995533;28;20045;-86
2021/06/03 09:10:42;;;;;;;4.78;1.45;;;27.30;58.40;;;;;;5013455;28;20070;-85
2021/06/03 09:13:14;;;;;;;1.85;1.27;;;27.50;60.10;;;;;;5014567;28;20038;-86
2021/06/03 09:15:52;;;;;;;4.03;1.57;;;27.50;58.40;;;;;;5020187;28;20387;-85
2021/06/03 09:18:30;;;;;;;3.35;1.20;;;27.70;60.20;;;;;;5021264;28;20049;-86
2021/06/03 09:20:56;;;;;;;2.75;1.40;;;27.80;58.10;;;;;;5036720;28;20033;-86
2021/06/03 09:23:27;;;;;;;8.35;1.58;;;28.00;58.80;;;;;;5019644;28;20048;-85
2021/06/03 09:25:53;;;;;;;2.25;1.75;;;28.10;58.40;;;;;;5020343;28;20042;-86
2021/06/03 09:28:24;;;;;;;4.18;1.33;;;28.20;56.90;;;;;;5022202;28;20073;-87
2021/06/03 09:31:02;;;;;;;2.67;1.15;;;28.30;55.30;;;;;;5021982;28;20080;-87
2021/06/03 09:33:43;;;;;;;1.48;0.77;;;28.40;51.10;;;;;;5023567;28;20029;-87
2021/06/03 09:36:11;;;;;;;25.83;2.53;;;28.50;51.50;;;;;;5023964;28;20041;-87
2021/06/03 09:38:53;;;;;;;3.85;2.17;;;28.60;52.40;;;;;;5003971;28;20041;-86
2021/06/03 09:41:19;;;;;;;3.55;1.13;;;28.80;49.60;;;;;;5020190;28;20127;-86
2021/06/03 09:43:46;;;;;;;2.88;1.33;;;28.80;53.20;;;;;;5019343;28;20038;-87
2021/06/03 09:46:14;;;;;;;1.38;1.13;;;28.90;51.50;;;;;;5000768;28;20104;-86
2021/06/03 09:48:42;;;;;;;1.65;1.08;;;28.90;49.60;;;;;;5002452;28;20049;-87
2021/06/03 09:51:23;;;;;;;1.15;0.90;;;29.00;51.70;;;;;;5005490;28;20038;-87
2021/06/03 09:53:53;;;;;;;3.17;1.75;;;29.00;49.60;;;;;;5005940;28;20164;-87
2021/06/03 09:56:31;;;;;;;2.35;1.10;;;29.00;48.50;;;;;;5010682;28;20393;-85
2021/06/03 09:58:57;;;;;;;3.72;1.25;;;29.00;49.60;;;;;;5015306;28;20104;-86
2021/06/03 10:01:48;;;;;;;4.70;1.50;;;28.90;48.10;;;;;;5002290;28;20120;-86
2021/06/03 10:04:17;;;;;;;5.38;1.63;;;29.00;53.50;;;;;;5007413;28;20041;-85
2021/06/03 10:07:04;;;;;;;5.38;1.27;;;29.10;51.60;;;;;;5025251;28;20074;-86
2021/06/03 10:09:45;;;;;;;2.88;0.98;;;29.30;52.60;;;;;;5031313;28;20053;-86
2021/06/03 10:12:21;;;;;;;3.28;0.95;;;29.50;48.40;;;;;;5009211;28;20046;-85
2021/06/03 10:14:47;;;;;;;3.50;1.50;;;29.50;51.70;;;;;;5010886;28;20415;-85
2021/06/03 10:17:39;;;;;;;2.17;1.52;;;29.60;46.40;;;;;;5010741;28;20053;-84
2021/06/03 10:20:09;;;;;;;;;;;29.60;45.80;;;;;;5026746;28;20133;-86
2021/06/03 10:22:54;;;;;;;4.30;1.30;;;29.70;51.50;;;;;;5024768;28;19924;-86
2021/06/03 10:25:23;;;;;;;3.08;1.27;;;29.70;48.10;;;;;;5002426;28;20038;-85
2021/06/03 10:28:00;;;;;;;2.25;1.35;;;29.70;49.50;;;;;;4997113;28;20132;-86
2021/06/03 10:30:41;;;;;;;2.33;0.90;;;29.60;50.40;;;;;;5021742;28;20034;-87
2021/06/03 10:33:15;;;;;;;2.70;1.00;;;29.60;49.10;;;;;;5001529;28;20042;-85
2021/06/03 10:35:45;;;;;;;2.25;1.20;;;29.70;46.60;;;;;;4998114;28;20066;-89
2021/06/03 10:38:11;;;;;;;2.45;1.30;;;29.70;44.50;;;;;;5011031;28;20145;-87
2021/06/03 10:40:45;;;;;;;2.25;1.33;;;29.60;46.20;;;;;;5017344;28;20045;-88
2021/06/03 10:43:11;;;;;;;3.20;1.10;;;29.60;48.50;;;;;;5015123;28;20038;-86
2021/06/03 10:45:39;;;;;;;3.25;1.30;;;29.50;46.20;;;;;;5022838;28;20035;-88
2021/06/03 10:48:06;;;;;;;2.33;1.05;;;29.50;47.80;;;;;;5011409;28;20042;-88
2021/06/03 10:50:58;;;;;;;1.75;1.13;;;29.40;49.10;;;;;;4997235;28;20398;-88
2021/06/03 10:53:27;;;;;;;2.85;1.13;;;29.40;48.10;;;;;;5008464;28;20096;-87
2021/06/03 10:55:55;;;;;;;4.68;1.50;;;29.40;50.00;;;;;;5000807;28;20369;-88
2021/06/03 10:58:33;;;;;;;4.28;1.17;;;29.60;51.60;;;;;;5014893;28;20050;-87
2021/06/03 11:01:05;;;;;;;5.43;1.00;;;29.60;48.40;;;;;;5009828;28;20029;-87
2021/06/03 11:03:39;;;;;;;;;;;29.70;51.10;;;;;;5010317;28;20025;-87
2021/06/03 11:06:14;;;;;;;3.97;1.20;;;29.80;46.90;;;;;;5012336;28;19913;-88
2021/06/03 11:08:44;;;;;;;2.85;1.25;;;29.80;49.10;;;;;;5011886;28;20033;-87
2021/06/03 11:11:09;;;;;;;4.70;1.15;;;29.90;50.70;;;;;;5017231;28;20038;-87
2021/06/03 11:13:45;;;;;;;3.03;1.42;;;29.90;50.80;;;;;;5015500;28;20262;-89
2021/06/03 11:16:15;;;;;;;2.88;1.27;;;30.00;47.90;;;;;;4999444;28;20037;-87
2021/06/03 11:18:44;;;;;;;2.13;1.20;;;30.10;47.70;;;;;;5006666;28;20089;-88
2021/06/03 11:21:41;;;;;;;2.03;1.27;;;30.10;50.50;;;;;;5024140;28;20030;-87
2021/06/03 11:24:10;;;;;;;2.05;1.13;;;30.20;48.50;;;;;;5003909;28;20038;-87
2021/06/03 11:29:25;;;;;;;2.88;1.67;;;30.20;47.10;;;;;;5013073;28;20049;-87
2021/06/03 11:32:01;;;;;;;1.48;1.20;;;30.30;50.90;;;;;;5029965;28;20022;-88
2021/06/03 11:34:40;;;;;;;5.13;1.90;;;30.30;51.20;;;;;;5035710;28;20033;-88
2021/06/03 11:37:20;;;;;;;1.50;1.30;;;30.20;50.50;;;;;;5025919;28;20128;-87
2021/06/03 11:39:47;;;;;;;1.67;1.23;;;30.20;49.10;;;;;;5016155;28;20219;-87
2021/06/03 11:42:25;;;;;;;1.92;1.40;;;30.20;51.10;;;;;;5014269;28;20101;-87
2021/06/03 11:45:00;;;;;;;2.88;1.27;;;30.10;49.60;;;;;;4995786;28;20034;-87
2021/06/03 11:47:26;;;;;;;5.15;1.23;;;30.10;48.90;;;;;;4997334;28;20030;-88
2021/06/03 11:49:52;;;;;;;3.35;1.25;;;30.20;50.00;;;;;;5019807;28;20529;-87
2021/06/03 11:52:18;;;;;;;4.20;1.40;;;30.20;48.40;;;;;;5024113;28;20072;-87
2021/06/03 11:55:03;;;;;;;1.60;1.08;;;30.30;49.70;;;;;;5023728;28;20124;-87
2021/06/03 11:57:33;;;;;;;1.50;1.20;;;30.30;49.00;;;;;;5013999;28;20038;-87
2021/06/03 12:00:10;;;;;;;1.88;1.20;;;30.40;50.10;;;;;;5012115;28;20105;-87
2021/06/03 12:02:38;;;;;;;2.55;1.23;;;30.50;51.40;;;;;;4996194;28;20038;-88
2021/06/03 12:05:09;;;;;;;9.07;1.80;;;30.70;52.70;;;;;;4997062;28;20034;-86
2021/06/03 12:07:54;;;;;;;6.93;1.67;;;30.70;51.20;;;;;;4995722;28;20314;-89
2021/06/03 12:10:39;;;;;;;2.38;1.70;;;30.90;47.50;;;;;;4996990;28;20030;-88
2021/06/03 12:13:19;;;;;;;2.63;1.40;;;31.00;49.60;;;;;;4997867;28;20042;-88
2021/06/03 12:15:44;;;;;;;2.55;1.20;;;31.00;47.70;;;;;;5015616;28;20114;-87
2021/06/03 12:18:10;;;;;;;1.75;1.25;;;31.00;51.90;;;;;;5012050;28;20172;-89
2021/06/03 12:20:36;;;;;;;2.08;1.20;;;31.10;47.20;;;;;;5001168;28;20048;-88
2021/06/03 12:23:06;;;;;;;3.58;1.25;;;31.00;45.70;;;;;;5011496;28;20037;-87
2021/06/03 12:25:33;;;;;;;1.58;1.30;;;30.90;47.60;;;;;;5015579;28;20033;-89
2021/06/03 12:27:58;;;;;;;3.88;1.95;;;30.90;48.60;;;;;;5024771;28;20084;-87
2021/06/03 12:30:29;;;;;;;2.33;1.17;;;30.80;48.90;;;;;;5023735;28;20046;-88
2021/06/03 12:33:01;;;;;;;4.78;1.10;;;30.80;48.80;;;;;;5001134;28;20124;-87
2021/06/03 12:35:48;;;;;;;3.47;1.10;;;30.90;49.70;;;;;;5013958;28;20038;-88
2021/06/03 12:38:35;;;;;;;1.92;1.27;;;31.00;48.00;;;;;;5013014;28;20080;-89
2021/06/03 12:41:26;;;;;;;2.03;1.25;;;31.10;49.50;;;;;;5009122;28;20229;-88
2021/06/03 12:44:10;;;;;;;2.28;1.80;;;31.30;49.90;;;;;;5000789;28;20125;-89
2021/06/03 12:46:38;;;;;;;3.05;1.55;;;31.30;49.70;;;;;;5012436;28;20100;-88
2021/06/03 12:49:28;;;;;;;1.75;1.30;;;31.30;48.60;;;;;;5018184;28;20061;-88
2021/06/03 12:51:57;;;;;;;1.55;1.33;;;31.30;50.40;;;;;;5022426;28;20313;-88
2021/06/03 12:54:30;;;;;;;3.70;1.60;;;31.40;46.60;;;;;;5006301;28;20037;-89
2021/06/03 12:56:59;;;;;;;2.42;1.17;;;31.40;49.60;;;;;;4997852;28;20042;-87
2021/06/03 12:59:27;;;;;;;5.20;1.15;;;31.30;48.80;;;;;;4996731;28;20034;-89
2021/06/03 13:02:01;;;;;;;4.00;1.17;;;31.30;45.10;;;;;;5019476;28;20034;-90
2021/06/03 13:04:40;;;;;;;1.90;1.00;;;31.30;45.90;;;;;;5029924;28;20064;-88